Mid Delta Regional Airport
KGLH : rendu visible

Aérodrome :











RETROUVEZ-NOUS SUR...

 
LOGIN :

S'inscrire | Disclaimer

   EN    FR    IT 

 









Légende :    VFR   VFR Marginal   IFR   IFR Intensif   IFR Très Intensif
Visi : 
Plafond : 
>= 8 km
>= 3000ft
5 à 8 km
1000 à 3000 ft
1500m à 5 km
500 à 1000 ft
800 à 1500m
200 à 500 ft
< 800m
< 200 ft
Symboles :   Orages  Brouillard  Fortes neiges  Fortes précipitations  Vent > 20 kt






- Altitude de l'aérodrome : 131 ft
- Code IATA : GLH


KGLH - Mid Delta Regional

DERNIER METAR :
  • 111953Z 19007KT 10SM OVC065 18/12 A2996 RMK AO2 SLP151 T01830122

METARs EXPIRÉS :
  • 111853Z 18012KT 10SM OVC065 18/12 A2997 RMK AO2 SLP156 T01830117
  • 111753Z 18007KT 10SM OVC070 18/12 A3001 RMK AO2 SLP169 60000 T01780122 10178 20106 58025

TAF KGLH
Valide du 11 à 18h jusqu'au 12 à 18h UTC


111753Z 1118/1218 18005KT P6SM BKN250
FM111900 20008KT 4SM RA OVC025
FM112100 35016G21KT 4SM RA OVC015
FM120100 35030G36KT P6SM -RA OVC015
FM120700 01027G33KT P6SM OVC015
FM121100 36024G30KT P6SM SKC



MET'MAP, la Météo Aéronautique d'un coup d'oeil ! - Copyright ORBIFLY Décembre 2007 - Disclaimer

ORBIFLY MET'MAP TEAM :

Programmation & Développement : Alexandra Zaïnal
Conception & Développement : Baudouin d'Aumeries
Co-Programmation & Développement : Marc-Olivier Méhu
Soutien technique & logistique : Manuel Goepfert

Contact : metmap@orbifly.com




SOURCES & CREDITS :

   NOAA       Earth
Advisory